Kramfors Flygplats, Sweden

6:35 PM CET on October 30, 2014 (GMT +0100)
Kramfors-Solleftea Air Base | Change Station
CLOSE
Current Station
Airport
Location: Kramfors Flygplats,
Elevation: 33 ft
Nearby Weather Stations

Elev 33 ft 63.05 °N, 17.77 °E | Updated 15 minutes ago

Clear
Clear
41 °F
Feels Like 35 °F
N
9
Wind Variable Wind from WNW

Today
High -- | Low -- °F
--% Chance of Precip.
Yesterday
High -- | Low -- °F
Precip. -- in
7:19 AM 3:44 PM
Waxing Crescent, 46% visible
Pressure 30.01 in
Visibility 6.2 miles
Clouds
Windchill 35 °F
Dew Point 30 °F
Humidity 65%
Rainfall 0.00 in
Snow Depth Not available.
UV Not available.
Pollen Not available.
Air Quality Not available.
Flu Activity Not available.
METAR ESNK 301720Z AUTO 30008KT 9999 NCD 05/M01 Q1016

More Conditions Fewer Conditions

Pressure 30.01 in
Visibility 6.2 miles
Clouds
Windchill 35 °F
Dew Point 30 °F
Humidity 65%
Rainfall 0.00 in
Snow Depth Not available.
UV Not available.
Pollen Not available.
Air Quality Not available.
Flu Activity Not available.
METAR ESNK 301720Z AUTO 30008KT 9999 NCD 05/M01 Q1016

More Conditions Fewer Conditions

10-Day Weather Forecast

Almanac

Astronomy

Oct. 30, 2014 Rise Set
Actual Time
Civil Twilight
Nautical Twilight
Astronomical Twilight
Moon
Length of Visible Light
Length of Day
Tomorrow will be .
, % of the Moon is Illuminated

Today's Extremes

Country Highs Country Lows

Community

WunderPhotos

Upload Photos

1,766,409 photos uploaded!

WunderBlogs® & News

Nearby

Air Quality

  Air Quality AQ Index Pollutant
Not available.

Snow Depth

Station Depth Elevation

Earthquake Activity

City Distance Mag. Time & Date
Minimum magnitude displayed is 2.5.

Coastal Water Temperatures

Place Temperature

Nearby Weather Stations